Disclaimer

Please do not use the information listed here in-flight or in-navigation, as they are not provided to us by the airports but are provided by volunteers, so they might be outdated.

Search


Regions


Airport information page

Radio informations:
APRON - 121.9 MHz
BREMEN RADAR - 136.225 MHz
KIEL MIL - 338.325 MHz
Ground (GND) - 125.6 MHz
BREMEN INFO - 125.1 MHz

Airport informations:
Latitude: 54° 22' 46.20" N
Longitude: 010° 08' 42.60" E
Elevation: 101 feet - 31 meters
Operating hours: Remarks
Operating agency: Civil government, landing fees and diplomatic clearance may be required
Timezone: UTC+1(+2DT) - Last Sunday in March to last Sunday in October
Fuel: Jet A1, without icing nhibitor.

100/130 MIL Spec, low lead, aviation gasoline (BLUE)

Runway information:
08/26 - 4134 x 98 feet< - >1260 x 30 meters
08L/26R - 1476 x 115 feet< - >450 x 35 meters

Recent METARs:
EDHK 191520Z 08016KT 9999 VCSH SCT018 06/03 Q1025

Airport on the map: